Am Tubarao — A8ZA9 — position and weather

sailwx.info

Track history (hours):
 
Tides and Currents Weather Stations Pressure Air Temp Water Temp Dewpoint Dewpoint Depression Visibility Wind Speed Wind Dir Waves Ship Positions

Am Tubarao

Last reported at 2014-Oct-24 14:31 UTC. Time now 2014-Oct-24 15:35 UTC.
Position N 51°27' E 003°42'.

Length 230 m; draft 11.9 m.

Type: Cargo ship. MMSI: 636015171.

Date/timePositionNaut miles runAvg speedWind from/ knotsBaromVisibWave heightAir tempDewpointWater temp
2014-Oct-24 14:31N 51°27' E 003°42'0 0.0
2014-Oct-24 13:31N 51°27' E 003°42'0 0.0
2014-Oct-24 12:31N 51°27' E 003°42'0 0.0
2014-Oct-24 11:31N 51°27' E 003°42'0 0.0
2014-Oct-24 10:28N 51°27' E 003°42'0 0.0
2014-Oct-24 09:31N 51°27' E 003°42'0 0.0
2014-Oct-24 08:28N 51°27' E 003°42'0 0.0
2014-Oct-24 07:31N 51°27' E 003°42'0 0.0
2014-Oct-24 06:31N 51°27' E 003°42'0 0.0
2014-Oct-24 05:31N 51°27' E 003°42'0 0.0
2014-Oct-24 04:31N 51°27' E 003°42'0 0.0
2014-Oct-24 03:31N 51°27' E 003°42'0 0.0
2014-Oct-24 02:28N 51°27' E 003°42'0 0.0
2014-Oct-24 01:28N 51°27' E 003°42'0 0.0
2014-Oct-24 00:31N 51°27' E 003°42'0 0.0
2014-Oct-23 23:31N 51°27' E 003°42'0 0.0
2014-Oct-23 22:31N 51°27' E 003°42'0 0.0
2014-Oct-23 21:31N 51°27' E 003°42'0 0.0
2014-Oct-23 20:31N 51°27' E 003°42'0 0.0
2014-Oct-23 19:28N 51°27' E 003°42'0 0.0
2014-Oct-23 18:31N 51°27' E 003°42'0 0.0
2014-Oct-23 17:31N 51°27' E 003°42'0 0.0
2014-Oct-23 16:31N 51°27' E 003°42'0 0.0
2014-Oct-23 15:31N 51°27' E 003°42'0 0.0
2014-Oct-23 14:31N 51°27' E 003°42'0 0.0
2014-Oct-23 13:31N 51°27' E 003°42'0 0.0
2014-Oct-23 12:28N 51°27' E 003°42'0 0.0
2014-Oct-23 11:28N 51°27' E 003°42'0 0.0
2014-Oct-23 10:31N 51°27' E 003°42'0 0.0
2014-Oct-23 09:31N 51°27' E 003°42'0 0.0
2014-Oct-23 08:31N 51°27' E 003°42'0 0.0
2014-Oct-23 07:33N 51°27' E 003°42'1 1.0
2014-Oct-23 06:33N 51°27' E 003°41'4 4.3
2014-Oct-23 05:33N 51°26' E 003°35'10 9.8
2014-Oct-23 04:33N 51°24' E 003°20'1111.1
2014-Oct-23 03:33N 51°25' E 003°02'1211.5
2014-Oct-23 02:32N 51°23' E 002°43'6 6.1
2014-Oct-23 01:33N 51°22' E 002°34'9 8.9
2014-Oct-23 00:33N 51°20' E 002°20'1010.1
2014-Oct-22 23:34N 51°15' E 002°06'1110.9
2014-Oct-22 22:33N 51°09' E 001°51'7 6.6
2014-Oct-22 21:34N 51°02' E 001°49'8 8.4
2014-Oct-22 20:33N 51°03' E 002°02'1211.9
2014-Oct-22 19:33N 51°04' E 002°21'1 0.6
2014-Oct-22 18:33N 51°03' E 002°20'1 1.0
2014-Oct-22 17:33N 51°03' E 002°19'0 0.1
2014-Oct-22 16:33N 51°03' E 002°19'0 0.0
2014-Oct-22 15:33N 51°03' E 002°19'0 0.0
2014-Oct-22 14:33N 51°03' E 002°19'0 0.0
2014-Oct-22 13:33N 51°03' E 002°19'0 0.0
2014-Oct-22 12:33N 51°03' E 002°19'0 0.0
2014-Oct-22 11:30N 51°03' E 002°19'0 0.0
2014-Oct-22 10:33N 51°03' E 002°19'0 0.0
2014-Oct-22 09:33N 51°03' E 002°19'0 0.0
2014-Oct-22 08:33N 51°03' E 002°19'0 0.0
2014-Oct-22 07:33N 51°03' E 002°19'0 0.0
2014-Oct-22 06:33N 51°03' E 002°19'0 0.0
2014-Oct-22 05:33N 51°03' E 002°19'0 0.0
2014-Oct-22 04:30N 51°03' E 002°19'0 0.0
2014-Oct-22 03:21N 51°03' E 002°19'0 0.0
2014-Oct-22 02:30N 51°03' E 002°19'0 0.0
2014-Oct-22 01:33N 51°03' E 002°19'0 0.0
2014-Oct-22 00:27N 51°03' E 002°19'0 0.0
2014-Oct-21 23:33N 51°03' E 002°19'0 0.0
2014-Oct-21 22:30N 51°03' E 002°19'0 0.0
2014-Oct-21 21:33N 51°03' E 002°19'0 0.0
2014-Oct-21 20:33N 51°03' E 002°19'0 0.0
2014-Oct-21 19:30N 51°03' E 002°19'0 0.0
2014-Oct-21 18:30N 51°03' E 002°19'0 0.0
2014-Oct-21 17:33N 51°03' E 002°19'0 0.0
2014-Oct-21 16:33N 51°03' E 002°19'0 0.0
2014-Oct-21 15:33N 51°03' E 002°19'0 0.0
2014-Oct-21 14:33N 51°03' E 002°19'0 0.0
2014-Oct-21 13:33N 51°03' E 002°19'0 0.0
2014-Oct-21 12:30N 51°03' E 002°19'0 0.0
2014-Oct-21 11:30N 51°03' E 002°19'0 0.0
2014-Oct-21 10:33N 51°03' E 002°19'0 0.0
2014-Oct-21 09:30N 51°03' E 002°19'0 0.0
2014-Oct-21 08:33N 51°03' E 002°19'0 0.0
2014-Oct-21 07:33N 51°03' E 002°19'0 0.0
2014-Oct-21 06:24N 51°03' E 002°19'0 0.0
2014-Oct-21 05:33N 51°03' E 002°19'0 0.0
2014-Oct-21 04:33N 51°03' E 002°19'0 0.0
2014-Oct-21 03:30N 51°03' E 002°19'0 0.0
2014-Oct-21 02:27N 51°03' E 002°19'0 0.0
2014-Oct-21 01:33N 51°03' E 002°19'0 0.0
2014-Oct-21 00:33N 51°03' E 002°19'0 0.0
2014-Oct-20 23:30N 51°03' E 002°19'0 0.0
2014-Oct-20 22:33N 51°03' E 002°19'0 0.0
2014-Oct-20 21:30N 51°03' E 002°19'0 0.0
2014-Oct-20 20:33N 51°03' E 002°19'0 0.0
2014-Oct-20 19:33N 51°03' E 002°19'0 0.0
2014-Oct-20 18:33N 51°03' E 002°19'0 0.0
2014-Oct-20 17:30N 51°03' E 002°19'0 0.0
2014-Oct-20 16:21N 51°03' E 002°19'0 0.0
2014-Oct-20 15:33N 51°03' E 002°19'0 0.0
2014-Oct-20 14:33N 51°03' E 002°19'0 0.0
2014-Oct-20 13:33N 51°03' E 002°19'0 0.0
2014-Oct-20 12:30N 51°03' E 002°19'0 0.0
2014-Oct-20 11:33N 51°03' E 002°19'0 0.0
2014-Oct-20 10:33N 51°03' E 002°19'0 0.0
2014-Oct-20 09:24N 51°03' E 002°19'0 0.0
2014-Oct-20 08:33N 51°03' E 002°19'0 0.0
2014-Oct-20 07:34N 51°03' E 002°19'0 0.0
2014-Oct-20 06:24N 51°03' E 002°19'0 0.0
2014-Oct-20 05:27N 51°03' E 002°19'0 0.0
2014-Oct-20 04:30N 51°03' E 002°19'0 0.0
2014-Oct-20 03:33N 51°03' E 002°19'0 0.0
2014-Oct-20 02:33N 51°03' E 002°19'0 0.0
2014-Oct-20 01:33N 51°03' E 002°19'0 0.4
2014-Oct-20 00:33N 51°03' E 002°19'1 0.8
2014-Oct-19 23:33N 51°03' E 002°21'3 3.4
2014-Oct-19 22:33N 51°04' E 002°15'1110.7
2014-Oct-19 21:33N 51°02' E 001°58'7 6.4
2014-Oct-19 20:29N 51°03' E 001°48'0 0.0
2014-Oct-19 19:32N 51°03' E 001°48'0 0.0
2014-Oct-19 18:32N 51°03' E 001°48'0 0.0
2014-Oct-19 17:32N 51°03' E 001°48'0 0.2
2014-Oct-19 16:32N 51°03' E 001°47'0 0.1
2014-Oct-19 15:32N 51°03' E 001°48'0 0.2
2014-Oct-19 14:32N 51°03' E 001°48'0 0.0
2014-Oct-19 13:29N 51°03' E 001°48'0 0.0
2014-Oct-19 12:26N 51°03' E 001°48'0 0.0
2014-Oct-19 11:32N 51°03' E 001°48'0 0.0
2014-Oct-19 10:23N 51°03' E 001°48'0 0.0
2014-Oct-19 09:32N 51°03' E 001°48'0 0.0
2014-Oct-19 08:32N 51°03' E 001°48'0 0.0
2014-Oct-19 07:32N 51°03' E 001°48'0 0.0
2014-Oct-19 06:32N 51°03' E 001°48'0 0.3
2014-Oct-19 05:32N 51°03' E 001°47'0 0.0
2014-Oct-19 04:32N 51°03' E 001°47'0 0.0
2014-Oct-19 03:32N 51°03' E 001°47'0 0.0
2014-Oct-19 02:32N 51°03' E 001°47'0 0.1
2014-Oct-19 01:32N 51°03' E 001°47'0 0.2
2014-Oct-19 00:32N 51°03' E 001°47'0 0.1
2014-Oct-18 23:23N 51°03' E 001°48'0 0.0
2014-Oct-18 22:32N 51°03' E 001°48'0 0.0
2014-Oct-18 21:32N 51°03' E 001°48'0 0.0
2014-Oct-18 20:32N 51°03' E 001°48'0 0.1
2014-Oct-18 19:32N 51°03' E 001°48'1 0.8
2014-Oct-18 18:33N 51°03' E 001°47'7 6.9
2014-Oct-18 17:33N 50°60' E 001°37'8 8.2
2014-Oct-18 16:33N 50°54' E 001°28'1010.2
2014-Oct-18 15:33N 50°44' E 001°22'  
Track history (hours):
 
Tides and Currents Weather Stations Pressure Air Temp Water Temp Dewpoint Dewpoint Depression Visibility Wind Speed Wind Dir Waves Ship Positions

Am Tubarao

Last reported at 2014-Oct-24 14:31 UTC. Time now 2014-Oct-24 15:35 UTC.
Position N 51°27' E 003°42'.

Length 230 m; draft 11.9 m.

Type: Cargo ship. MMSI: 636015171.

Date/timePositionNaut miles runAvg speedWind from/ knotsBaromVisibWave heightAir tempDewpointWater temp
2014-Oct-24 14:31N 51°27' E 003°42'0 0.0
2014-Oct-24 13:31N 51°27' E 003°42'0 0.0
2014-Oct-24 12:31N 51°27' E 003°42'0 0.0
2014-Oct-24 11:31N 51°27' E 003°42'0 0.0
2014-Oct-24 10:28N 51°27' E 003°42'0 0.0
2014-Oct-24 09:31N 51°27' E 003°42'0 0.0
2014-Oct-24 08:28N 51°27' E 003°42'0 0.0
2014-Oct-24 07:31N 51°27' E 003°42'0 0.0
2014-Oct-24 06:31N 51°27' E 003°42'0 0.0
2014-Oct-24 05:31N 51°27' E 003°42'0 0.0
2014-Oct-24 04:31N 51°27' E 003°42'0 0.0
2014-Oct-24 03:31N 51°27' E 003°42'0 0.0
2014-Oct-24 02:28N 51°27' E 003°42'0 0.0
2014-Oct-24 01:28N 51°27' E 003°42'0 0.0
2014-Oct-24 00:31N 51°27' E 003°42'0 0.0
2014-Oct-23 23:31N 51°27' E 003°42'0 0.0
2014-Oct-23 22:31N 51°27' E 003°42'0 0.0
2014-Oct-23 21:31N 51°27' E 003°42'0 0.0
2014-Oct-23 20:31N 51°27' E 003°42'0 0.0
2014-Oct-23 19:28N 51°27' E 003°42'0 0.0
2014-Oct-23 18:31N 51°27' E 003°42'0 0.0
2014-Oct-23 17:31N 51°27' E 003°42'0 0.0
2014-Oct-23 16:31N 51°27' E 003°42'0 0.0
2014-Oct-23 15:31N 51°27' E 003°42'0 0.0
2014-Oct-23 14:31N 51°27' E 003°42'0 0.0
2014-Oct-23 13:31N 51°27' E 003°42'0 0.0
2014-Oct-23 12:28N 51°27' E 003°42'0 0.0
2014-Oct-23 11:28N 51°27' E 003°42'0 0.0
2014-Oct-23 10:31N 51°27' E 003°42'0 0.0
2014-Oct-23 09:31N 51°27' E 003°42'0 0.0
2014-Oct-23 08:31N 51°27' E 003°42'0 0.0
2014-Oct-23 07:33N 51°27' E 003°42'1 1.0
2014-Oct-23 06:33N 51°27' E 003°41'4 4.3
2014-Oct-23 05:33N 51°26' E 003°35'10 9.8
2014-Oct-23 04:33N 51°24' E 003°20'1111.1
2014-Oct-23 03:33N 51°25' E 003°02'1211.5
2014-Oct-23 02:32N 51°23' E 002°43'6 6.1
2014-Oct-23 01:33N 51°22' E 002°34'9 8.9
2014-Oct-23 00:33N 51°20' E 002°20'1010.1
2014-Oct-22 23:34N 51°15' E 002°06'1110.9
2014-Oct-22 22:33N 51°09' E 001°51'7 6.6
2014-Oct-22 21:34N 51°02' E 001°49'8 8.4
2014-Oct-22 20:33N 51°03' E 002°02'1211.9
2014-Oct-22 19:33N 51°04' E 002°21'1 0.6
2014-Oct-22 18:33N 51°03' E 002°20'1 1.0
2014-Oct-22 17:33N 51°03' E 002°19'0 0.1
2014-Oct-22 16:33N 51°03' E 002°19'0 0.0
2014-Oct-22 15:33N 51°03' E 002°19'0 0.0
2014-Oct-22 14:33N 51°03' E 002°19'0 0.0
2014-Oct-22 13:33N 51°03' E 002°19'0 0.0
2014-Oct-22 12:33N 51°03' E 002°19'0 0.0
2014-Oct-22 11:30N 51°03' E 002°19'0 0.0
2014-Oct-22 10:33N 51°03' E 002°19'0 0.0
2014-Oct-22 09:33N 51°03' E 002°19'0 0.0
2014-Oct-22 08:33N 51°03' E 002°19'0 0.0
2014-Oct-22 07:33N 51°03' E 002°19'0 0.0
2014-Oct-22 06:33N 51°03' E 002°19'0 0.0
2014-Oct-22 05:33N 51°03' E 002°19'0 0.0
2014-Oct-22 04:30N 51°03' E 002°19'0 0.0
2014-Oct-22 03:21N 51°03' E 002°19'0 0.0
2014-Oct-22 02:30N 51°03' E 002°19'0 0.0
2014-Oct-22 01:33N 51°03' E 002°19'0 0.0
2014-Oct-22 00:27N 51°03' E 002°19'0 0.0
2014-Oct-21 23:33N 51°03' E 002°19'0 0.0
2014-Oct-21 22:30N 51°03' E 002°19'0 0.0
2014-Oct-21 21:33N 51°03' E 002°19'0 0.0
2014-Oct-21 20:33N 51°03' E 002°19'0 0.0
2014-Oct-21 19:30N 51°03' E 002°19'0 0.0
2014-Oct-21 18:30N 51°03' E 002°19'0 0.0
2014-Oct-21 17:33N 51°03' E 002°19'0 0.0
2014-Oct-21 16:33N 51°03' E 002°19'0 0.0
2014-Oct-21 15:33N 51°03' E 002°19'0 0.0
2014-Oct-21 14:33N 51°03' E 002°19'0 0.0
2014-Oct-21 13:33N 51°03' E 002°19'0 0.0
2014-Oct-21 12:30N 51°03' E 002°19'0 0.0
2014-Oct-21 11:30N 51°03' E 002°19'0 0.0
2014-Oct-21 10:33N 51°03' E 002°19'0 0.0
2014-Oct-21 09:30N 51°03' E 002°19'0 0.0
2014-Oct-21 08:33N 51°03' E 002°19'0 0.0
2014-Oct-21 07:33N 51°03' E 002°19'0 0.0
2014-Oct-21 06:24N 51°03' E 002°19'0 0.0
2014-Oct-21 05:33N 51°03' E 002°19'0 0.0
2014-Oct-21 04:33N 51°03' E 002°19'0 0.0
2014-Oct-21 03:30N 51°03' E 002°19'0 0.0
2014-Oct-21 02:27N 51°03' E 002°19'0 0.0
2014-Oct-21 01:33N 51°03' E 002°19'0 0.0
2014-Oct-21 00:33N 51°03' E 002°19'0 0.0
2014-Oct-20 23:30N 51°03' E 002°19'0 0.0
2014-Oct-20 22:33N 51°03' E 002°19'0 0.0
2014-Oct-20 21:30N 51°03' E 002°19'0 0.0
2014-Oct-20 20:33N 51°03' E 002°19'0 0.0
2014-Oct-20 19:33N 51°03' E 002°19'0 0.0
2014-Oct-20 18:33N 51°03' E 002°19'0 0.0
2014-Oct-20 17:30N 51°03' E 002°19'0 0.0
2014-Oct-20 16:21N 51°03' E 002°19'0 0.0
2014-Oct-20 15:33N 51°03' E 002°19'0 0.0
2014-Oct-20 14:33N 51°03' E 002°19'0 0.0
2014-Oct-20 13:33N 51°03' E 002°19'0 0.0
2014-Oct-20 12:30N 51°03' E 002°19'0 0.0
2014-Oct-20 11:33N 51°03' E 002°19'0 0.0
2014-Oct-20 10:33N 51°03' E 002°19'0 0.0
2014-Oct-20 09:24N 51°03' E 002°19'0 0.0
2014-Oct-20 08:33N 51°03' E 002°19'0 0.0
2014-Oct-20 07:34N 51°03' E 002°19'0 0.0
2014-Oct-20 06:24N 51°03' E 002°19'0 0.0
2014-Oct-20 05:27N 51°03' E 002°19'0 0.0
2014-Oct-20 04:30N 51°03' E 002°19'0 0.0
2014-Oct-20 03:33N 51°03' E 002°19'0 0.0
2014-Oct-20 02:33N 51°03' E 002°19'0 0.0
2014-Oct-20 01:33N 51°03' E 002°19'0 0.4
2014-Oct-20 00:33N 51°03' E 002°19'1 0.8
2014-Oct-19 23:33N 51°03' E 002°21'3 3.4
2014-Oct-19 22:33N 51°04' E 002°15'1110.7
2014-Oct-19 21:33N 51°02' E 001°58'7 6.4
2014-Oct-19 20:29N 51°03' E 001°48'0 0.0
2014-Oct-19 19:32N 51°03' E 001°48'0 0.0
2014-Oct-19 18:32N 51°03' E 001°48'0 0.0
2014-Oct-19 17:32N 51°03' E 001°48'0 0.2
2014-Oct-19 16:32N 51°03' E 001°47'0 0.1
2014-Oct-19 15:32N 51°03' E 001°48'0 0.2
2014-Oct-19 14:32N 51°03' E 001°48'0 0.0
2014-Oct-19 13:29N 51°03' E 001°48'0 0.0
2014-Oct-19 12:26N 51°03' E 001°48'0 0.0
2014-Oct-19 11:32N 51°03' E 001°48'0 0.0
2014-Oct-19 10:23N 51°03' E 001°48'0 0.0
2014-Oct-19 09:32N 51°03' E 001°48'0 0.0
2014-Oct-19 08:32N 51°03' E 001°48'0 0.0
2014-Oct-19 07:32N 51°03' E 001°48'0 0.0
2014-Oct-19 06:32N 51°03' E 001°48'0 0.3
2014-Oct-19 05:32N 51°03' E 001°47'0 0.0
2014-Oct-19 04:32N 51°03' E 001°47'0 0.0
2014-Oct-19 03:32N 51°03' E 001°47'0 0.0
2014-Oct-19 02:32N 51°03' E 001°47'0 0.1
2014-Oct-19 01:32N 51°03' E 001°47'0 0.2
2014-Oct-19 00:32N 51°03' E 001°47'0 0.1
2014-Oct-18 23:23N 51°03' E 001°48'0 0.0
2014-Oct-18 22:32N 51°03' E 001°48'0 0.0
2014-Oct-18 21:32N 51°03' E 001°48'0 0.0
2014-Oct-18 20:32N 51°03' E 001°48'0 0.1
2014-Oct-18 19:32N 51°03' E 001°48'1 0.8
2014-Oct-18 18:33N 51°03' E 001°47'7 6.9
2014-Oct-18 17:33N 50°60' E 001°37'8 8.2
2014-Oct-18 16:33N 50°54' E 001°28'1010.2
2014-Oct-18 15:33N 50°44' E 001°22'  

Dump ship's entire track history